X  Close Metar Aviation Weather Data     EFPO Pori Airport
Temperature
3°C Temperature
2°C Dewpoint
93% Humidity



Wind
4 M/S
8 MPH
13 KM/H
7 KTS



220°
SW
Current Conditions

Overcast Overcast
Pressure 1014.92 (hPa) - 29.97 (inHg)
Visibility 6.2 (mile) - 10 (km)
Airport
Airport-code EFPO

Location: Pori Airport
Distance: 56 (km)

Metar:
EFPO 122120Z AUTO 22007KT 180V250 9999 OVC005 03/02 Q1015

Time: 13-04-2021 00:20 EEST